Time;durP1;ratioP1;P1;durP2;ratioP2;P2;SDS_P1;SDS_P2;PMS_P1;PMS_P2;Temp;Humidity;BMP_temperature;BMP_pressure;BME280_temperature;BME280_humidity;BME280_pressure;Samples;Min_cycle;Max_cycle;Signal;HPM_P1;HPM_P2
2021/10/27 00:00:50;;;;;;;21.60;16.23;;;;;;;;;;5034190;28;20231;-71
2021/10/27 00:03:16;;;;;;;19.00;14.70;;;;;;;;;;5034857;28;20226;-71
2021/10/27 00:05:43;;;;;;;23.03;16.07;;;;;;;;;;5031713;28;20309;-71
2021/10/27 00:08:09;;;;;;;23.10;16.10;;;;;;;;;;5033050;28;20226;-71
2021/10/27 00:10:36;;;;;;;22.10;16.10;;;;;;;;;;5031584;28;20213;-71
2021/10/27 00:13:05;;;;;;;24.13;16.83;;;;;;;;;;5033423;28;20211;-71
2021/10/27 00:15:32;;;;;;;22.77;16.53;;;;;;;;;;5032769;28;20203;-71
2021/10/27 00:18:00;;;;;;;22.80;16.47;;;;;;;;;;5032712;28;20239;-71
2021/10/27 00:20:26;;;;;;;25.13;16.83;;;;;;;;;;5033947;28;20266;-71
2021/10/27 00:22:53;;;;;;;29.07;17.30;;;;;;;;;;5033287;28;20227;-71
2021/10/27 00:25:19;;;;;;;28.27;17.80;;;;;;;;;;5032773;28;20219;-71
2021/10/27 00:27:46;;;;;;;30.63;18.93;;;;;;;;;;5033429;28;20210;-71
2021/10/27 00:30:14;;;;;;;26.17;18.70;;;;;;;;;;5031895;28;20211;-71
2021/10/27 00:32:40;;;;;;;28.40;19.53;;;;;;;;;;5032486;28;20264;-71
2021/10/27 00:35:08;;;;;;;31.90;21.10;;;;;;;;;;5033819;28;20260;-71
2021/10/27 00:37:34;;;;;;;32.57;21.60;;;;;;;;;;5033304;28;20238;-71
2021/10/27 00:40:00;;;;;;;25.83;21.07;;;;;;;;;;5033449;28;20248;-71
2021/10/27 00:42:27;;;;;;;30.33;22.73;;;;;;;;;;5032103;28;20221;-71
2021/10/27 00:44:53;;;;;;;30.80;22.83;;;;;;;;;;5031999;28;20288;-71
2021/10/27 00:47:22;;;;;;;34.80;22.83;;;;;;;;;;5031766;28;20302;-71
2021/10/27 00:49:48;;;;;;;30.83;23.30;;;;;;;;;;5031815;28;20285;-71
2021/10/27 00:52:17;;;;;;;38.70;23.90;;;;;;;;;;5032639;28;20211;-71
2021/10/27 00:54:45;;;;;;;37.30;23.83;;;;;;;;;;5033548;28;20222;-71
2021/10/27 00:57:13;;;;;;;29.63;22.33;;;;;;;;;;5033616;28;20276;-71
2021/10/27 00:59:40;;;;;;;27.83;21.77;;;;;;;;;;5032670;28;20218;-71
2021/10/27 01:02:07;;;;;;;26.97;21.33;;;;;;;;;;5033363;28;20265;-71
2021/10/27 01:04:36;;;;;;;26.73;21.53;;;;;;;;;;5032813;28;20238;-71
2021/10/27 01:07:02;;;;;;;30.47;21.60;;;;;;;;;;5032537;28;20207;-71
2021/10/27 01:09:29;;;;;;;23.77;20.00;;;;;;;;;;5037458;28;20238;-71
2021/10/27 01:11:55;;;;;;;22.97;19.37;;;;;;;;;;5037101;28;20316;-71
2021/10/27 01:14:22;;;;;;;26.43;19.37;;;;;;;;;;5036882;28;20206;-71
2021/10/27 01:16:49;;;;;;;31.73;20.37;;;;;;;;;;5035285;28;20231;-71
2021/10/27 01:19:15;;;;;;;21.97;19.67;;;;;;;;;;5036397;28;20376;-71
2021/10/27 01:21:44;;;;;;;28.10;19.67;;;;;;;;;;5036383;28;20206;-71
2021/10/27 01:24:10;;;;;;;23.33;17.60;;;;;;;;;;5035541;28;20223;-71
2021/10/27 01:26:37;;;;;;;24.17;18.07;;;;;;;;;;5038279;28;20224;-71
2021/10/27 01:29:03;;;;;;;21.60;18.53;;;;;;;;;;5036009;28;20591;-71
2021/10/27 01:31:30;;;;;;;21.00;16.73;;;;;;;;;;5036331;28;20662;-71
2021/10/27 01:33:59;;;;;;;25.00;15.80;;;;;;;;;;5036149;28;20234;-71
2021/10/27 01:36:29;;;;;;;23.10;15.50;;;;;;;;;;5035016;28;20788;-71
2021/10/27 01:38:56;;;;;;;26.00;16.00;;;;;;;;;;5036267;28;20227;-71
2021/10/27 01:41:23;;;;;;;22.47;15.90;;;;;;;;;;5036914;28;20211;-72
2021/10/27 01:43:51;;;;;;;21.37;14.57;;;;;;;;;;5034857;28;20226;-71
2021/10/27 01:46:25;;;;;;;21.87;16.03;;;;;;;;;;5035907;28;20612;-71
2021/10/27 01:48:51;;;;;;;22.20;15.30;;;;;;;;;;5035345;28;20227;-71
2021/10/27 01:51:18;;;;;;;17.53;15.43;;;;;;;;;;5036141;28;20219;-71
2021/10/27 01:53:44;;;;;;;21.17;15.83;;;;;;;;;;5035945;28;20243;-71
2021/10/27 01:56:12;;;;;;;21.90;15.37;;;;;;;;;;5033545;28;20242;-71
2021/10/27 01:58:39;;;;;;;23.10;15.43;;;;;;;;;;5036147;28;20218;-71
2021/10/27 02:01:05;;;;;;;20.50;15.13;;;;;;;;;;5035875;28;20215;-71
2021/10/27 02:03:32;;;;;;;24.80;14.97;;;;;;;;;;5036327;28;20215;-71
2021/10/27 02:05:58;;;;;;;21.83;15.23;;;;;;;;;;5034513;28;20841;-71
2021/10/27 02:08:25;;;;;;;21.50;14.87;;;;;;;;;;5036257;28;20227;-71
2021/10/27 02:10:51;;;;;;;26.00;15.73;;;;;;;;;;5034941;28;20219;-71
2021/10/27 02:13:19;;;;;;;26.13;16.43;;;;;;;;;;5034988;28;20461;-72
2021/10/27 02:15:45;;;;;;;22.30;16.17;;;;;;;;;;5037403;28;20219;-71
2021/10/27 02:18:12;;;;;;;22.03;16.07;;;;;;;;;;5037136;28;20620;-71
2021/10/27 02:20:38;;;;;;;22.27;15.43;;;;;;;;;;5035588;28;20921;-71
2021/10/27 02:23:05;;;;;;;19.23;14.80;;;;;;;;;;5036425;28;20688;-71
2021/10/27 02:25:31;;;;;;;31.43;15.87;;;;;;;;;;5035784;28;20619;-71
2021/10/27 02:27:58;;;;;;;20.30;14.47;;;;;;;;;;5035151;28;20211;-71
2021/10/27 02:30:26;;;;;;;23.20;14.73;;;;;;;;;;5033680;28;20322;-72
2021/10/27 02:32:52;;;;;;;21.30;14.90;;;;;;;;;;5034253;28;20246;-71
2021/10/27 02:35:19;;;;;;;26.80;16.13;;;;;;;;;;5035184;28;20288;-71
2021/10/27 02:37:45;;;;;;;22.60;14.47;;;;;;;;;;5035100;28;21469;-71
2021/10/27 02:40:14;;;;;;;22.30;15.43;;;;;;;;;;5035706;28;20230;-71
2021/10/27 02:42:41;;;;;;;22.70;15.23;;;;;;;;;;5035660;28;20219;-71
2021/10/27 02:45:09;;;;;;;21.43;14.90;;;;;;;;;;5034629;28;20694;-71
2021/10/27 02:47:37;;;;;;;22.27;15.20;;;;;;;;;;5036157;28;20214;-71
2021/10/27 02:50:04;;;;;;;20.13;14.77;;;;;;;;;;5036142;28;21338;-71
2021/10/27 02:52:31;;;;;;;22.47;15.63;;;;;;;;;;5035984;28;20219;-71
2021/10/27 02:54:58;;;;;;;19.83;14.50;;;;;;;;;;5033485;28;20786;-71
2021/10/27 02:57:25;;;;;;;22.93;14.37;;;;;;;;;;5035959;28;20230;-71
2021/10/27 02:59:51;;;;;;;26.57;15.17;;;;;;;;;;5034104;28;20257;-71
2021/10/27 03:02:18;;;;;;;21.00;14.50;;;;;;;;;;5036308;28;20218;-71
2021/10/27 03:04:45;;;;;;;18.53;13.50;;;;;;;;;;5036499;28;20231;-72
2021/10/27 03:07:12;;;;;;;19.00;12.67;;;;;;;;;;5033833;28;20217;-71
2021/10/27 03:09:38;;;;;;;21.03;12.47;;;;;;;;;;5034907;28;20234;-71
2021/10/27 03:12:05;;;;;;;20.53;11.33;;;;;;;;;;5033937;28;20281;-71
2021/10/27 03:14:32;;;;;;;24.07;13.00;;;;;;;;;;5034372;28;20219;-71
2021/10/27 03:16:58;;;;;;;22.37;12.80;;;;;;;;;;5032395;28;20219;-71
2021/10/27 03:19:25;;;;;;;16.60;13.00;;;;;;;;;;5032217;28;20285;-71
2021/10/27 03:21:53;;;;;;;18.87;13.53;;;;;;;;;;5034845;28;20268;-71
2021/10/27 03:24:19;;;;;;;22.90;15.73;;;;;;;;;;5033984;28;20235;-71
2021/10/27 03:26:46;;;;;;;26.23;15.77;;;;;;;;;;5034350;28;20214;-71
2021/10/27 03:29:12;;;;;;;21.00;16.17;;;;;;;;;;5032808;28;20242;-71
2021/10/27 03:31:39;;;;;;;23.93;16.47;;;;;;;;;;5033995;28;20215;-71
2021/10/27 03:34:05;;;;;;;23.77;17.57;;;;;;;;;;5033449;28;20235;-71
2021/10/27 03:36:31;;;;;;;20.00;17.33;;;;;;;;;;5034816;28;20211;-71
2021/10/27 03:38:59;;;;;;;21.20;17.97;;;;;;;;;;5033720;28;20281;-71
2021/10/27 03:41:25;;;;;;;24.07;18.03;;;;;;;;;;5033314;28;20261;-71
2021/10/27 03:43:52;;;;;;;28.93;19.37;;;;;;;;;;5031911;28;20219;-71
2021/10/27 03:46:18;;;;;;;27.77;19.80;;;;;;;;;;5033056;28;20231;-71
2021/10/27 03:48:45;;;;;;;25.73;18.33;;;;;;;;;;5034062;28;20226;-71
2021/10/27 03:51:13;;;;;;;27.33;19.33;;;;;;;;;;5034944;28;20218;-71
2021/10/27 03:53:41;;;;;;;31.53;18.47;;;;;;;;;;5033465;28;20224;-71
2021/10/27 03:56:09;;;;;;;25.73;18.47;;;;;;;;;;5033349;28;20211;-71
2021/10/27 03:58:35;;;;;;;30.30;19.03;;;;;;;;;;5033018;28;20304;-71
2021/10/27 04:01:01;;;;;;;26.77;18.67;;;;;;;;;;5033861;28;20223;-71
2021/10/27 04:03:28;;;;;;;24.07;18.00;;;;;;;;;;5034410;28;20294;-71
2021/10/27 04:05:55;;;;;;;22.87;18.83;;;;;;;;;;5032910;28;20234;-71
2021/10/27 04:08:21;;;;;;;23.03;18.37;;;;;;;;;;5032043;28;20227;-71
2021/10/27 04:10:48;;;;;;;30.57;18.90;;;;;;;;;;5033954;28;20269;-71
2021/10/27 04:13:18;;;;;;;22.43;17.03;;;;;;;;;;5032475;28;20264;-71
2021/10/27 04:15:44;;;;;;;29.70;15.90;;;;;;;;;;5033600;28;20214;-71
2021/10/27 04:18:11;;;;;;;22.90;16.30;;;;;;;;;;5033837;28;20251;-71
2021/10/27 04:20:38;;;;;;;21.37;15.83;;;;;;;;;;5033872;28;20261;-71
2021/10/27 04:23:05;;;;;;;20.40;15.00;;;;;;;;;;5032852;28;20272;-71
2021/10/27 04:25:32;;;;;;;20.87;13.23;;;;;;;;;;5033567;28;20215;-71
2021/10/27 04:27:58;;;;;;;17.03;15.10;;;;;;;;;;5033944;28;20211;-71
2021/10/27 04:30:26;;;;;;;21.33;14.00;;;;;;;;;;5033143;28;20241;-71
2021/10/27 04:32:53;;;;;;;22.47;14.60;;;;;;;;;;5031590;28;20437;-72
2021/10/27 04:35:20;;;;;;;22.10;14.00;;;;;;;;;;5034416;28;20228;-72
2021/10/27 04:37:46;;;;;;;17.03;11.70;;;;;;;;;;5031637;28;20239;-72
2021/10/27 04:40:15;;;;;;;20.23;12.93;;;;;;;;;;5031810;28;20227;-72
2021/10/27 04:42:41;;;;;;;18.37;13.13;;;;;;;;;;5031192;28;20741;-72
2021/10/27 04:45:10;;;;;;;22.37;13.33;;;;;;;;;;5031186;28;20215;-72
2021/10/27 04:47:38;;;;;;;19.33;12.90;;;;;;;;;;5034040;28;20247;-72
2021/10/27 04:50:06;;;;;;;18.80;12.60;;;;;;;;;;5033444;28;20304;-72
2021/10/27 04:52:33;;;;;;;19.50;13.27;;;;;;;;;;5032992;28;20214;-72
2021/10/27 04:54:59;;;;;;;16.70;11.40;;;;;;;;;;5032065;28;20642;-72
2021/10/27 04:57:25;;;;;;;18.10;11.97;;;;;;;;;;5031123;28;20284;-72
2021/10/27 04:59:52;;;;;;;16.77;12.20;;;;;;;;;;5030751;28;20219;-71
2021/10/27 05:02:19;;;;;;;18.90;11.27;;;;;;;;;;5032352;28;20284;-71
2021/10/27 05:04:47;;;;;;;17.57;12.33;;;;;;;;;;5033148;28;20308;-72
2021/10/27 05:07:15;;;;;;;19.17;12.20;;;;;;;;;;5033384;28;20207;-72
2021/10/27 05:09:43;;;;;;;20.13;12.43;;;;;;;;;;5033485;28;20695;-72
2021/10/27 05:12:10;;;;;;;20.63;12.90;;;;;;;;;;5033095;28;20556;-72
2021/10/27 05:14:37;;;;;;;19.93;12.97;;;;;;;;;;5032749;28;20207;-72
2021/10/27 05:17:06;;;;;;;18.67;12.50;;;;;;;;;;5032665;28;20329;-72
2021/10/27 05:19:32;;;;;;;20.37;13.43;;;;;;;;;;5032239;28;20690;-71
2021/10/27 05:22:00;;;;;;;22.73;13.87;;;;;;;;;;5033637;28;20215;-71
2021/10/27 05:24:27;;;;;;;18.90;13.10;;;;;;;;;;5031647;28;20235;-72
2021/10/27 05:26:53;;;;;;;17.10;12.30;;;;;;;;;;5032232;28;20218;-71
2021/10/27 05:29:20;;;;;;;16.20;13.90;;;;;;;;;;5032204;28;20207;-72
2021/10/27 05:31:46;;;;;;;18.00;14.90;;;;;;;;;;5032847;28;20211;-72
2021/10/27 05:34:13;;;;;;;23.13;15.10;;;;;;;;;;5031129;28;20234;-72
2021/10/27 05:36:39;;;;;;;19.50;14.50;;;;;;;;;;5032048;28;20693;-72
2021/10/27 05:39:07;;;;;;;23.63;14.93;;;;;;;;;;5031752;28;20230;-72
2021/10/27 05:41:34;;;;;;;24.07;16.17;;;;;;;;;;5031879;28;20561;-72
2021/10/27 05:44:01;;;;;;;25.57;17.27;;;;;;;;;;5032507;28;20226;-72
2021/10/27 05:46:28;;;;;;;18.70;15.90;;;;;;;;;;5032876;28;20217;-72
2021/10/27 05:49:02;;;;;;;20.40;16.27;;;;;;;;;;5032145;28;20239;-72
2021/10/27 05:51:39;;;;;;;18.87;16.03;;;;;;;;;;5029871;28;20214;-72
2021/10/27 05:56:51;;;;;;;24.87;18.13;;;;;;;;;;5036395;28;20222;-72
2021/10/27 05:59:17;;;;;;;18.60;15.90;;;;;;;;;;5035718;28;20256;-72
2021/10/27 06:01:44;;;;;;;20.87;15.50;;;;;;;;;;5035320;28;20302;-72
2021/10/27 06:04:10;;;;;;;21.90;16.23;;;;;;;;;;5034714;28;20230;-72
2021/10/27 06:06:37;;;;;;;17.53;14.53;;;;;;;;;;5035428;28;20238;-72
2021/10/27 06:09:05;;;;;;;22.57;15.70;;;;;;;;;;5032976;28;20264;-72
2021/10/27 06:11:33;;;;;;;23.40;15.37;;;;;;;;;;5034208;28;20222;-72
2021/10/27 06:14:01;;;;;;;19.43;14.90;;;;;;;;;;5035173;28;20215;-72
2021/10/27 06:16:27;;;;;;;18.97;14.83;;;;;;;;;;5034167;28;20214;-72
2021/10/27 06:18:54;;;;;;;17.23;13.10;;;;;;;;;;5033454;28;20243;-72
2021/10/27 06:21:20;;;;;;;16.40;12.63;;;;;;;;;;5033059;28;20269;-72
2021/10/27 06:23:47;;;;;;;15.30;12.63;;;;;;;;;;5034657;28;20276;-72
2021/10/27 06:26:13;;;;;;;14.83;11.60;;;;;;;;;;5032937;28;20212;-72
2021/10/27 06:28:45;;;;;;;16.17;12.10;;;;;;;;;;5033240;28;20707;-72
2021/10/27 06:31:15;;;;;;;17.10;12.13;;;;;;;;;;5033353;28;20306;-72
2021/10/27 06:33:52;;;;;;;16.20;10.77;;;;;;;;;;5033002;28;20227;-72
2021/10/27 06:36:23;;;;;;;15.40;10.47;;;;;;;;;;5032191;28;20229;-71
2021/10/27 06:46:59;;;;;;;13.13;9.37;;;;;;;;;;5035877;28;20604;-72
2021/10/27 06:49:27;;;;;;;12.93;9.50;;;;;;;;;;5032906;28;20821;-72
2021/10/27 06:51:54;;;;;;;13.03;8.87;;;;;;;;;;5033747;28;20218;-72
2021/10/27 06:54:20;;;;;;;13.03;9.23;;;;;;;;;;5031575;28;20681;-72
2021/10/27 06:56:46;;;;;;;15.80;9.17;;;;;;;;;;5032773;28;20638;-72
2021/10/27 06:59:15;;;;;;;13.90;9.80;;;;;;;;;;5030467;28;20698;-72
2021/10/27 07:14:57;;;;;;;12.83;8.90;;;;;;;;;;5031831;28;20256;-72
2021/10/27 07:15:36;;;;;;;11.00;7.90;;;;;;;;;;5032790;28;20708;-72
2021/10/27 07:18:05;;;;;;;11.97;8.37;;;;;;;;;;5031228;28;20253;-72
2021/10/27 07:20:31;;;;;;;13.80;8.07;;;;;;;;;;5031308;28;20227;-72
2021/10/27 07:23:00;;;;;;;13.87;7.23;;;;;;;;;;5029296;28;20226;-72
2021/10/27 07:25:27;;;;;;;12.97;7.37;;;;;;;;;;5029216;28;20210;-72
2021/10/27 07:27:53;;;;;;;10.23;6.63;;;;;;;;;;5028732;28;20302;-72
2021/10/27 07:30:20;;;;;;;7.17;6.23;;;;;;;;;;5027823;28;20211;-72
2021/10/27 07:32:52;;;;;;;8.13;6.30;;;;;;;;;;5032202;28;20311;-72
2021/10/27 07:35:27;;;;;;;11.53;5.83;;;;;;;;;;5032076;28;20777;-72
2021/10/27 07:40:41;;;;;;;10.77;5.20;;;;;;;;;;5033231;28;20238;-71
2021/10/27 07:43:12;;;;;;;11.83;5.30;;;;;;;;;;5031753;28;20297;-71
2021/10/27 07:45:39;;;;;;;9.47;5.27;;;;;;;;;;5030184;28;20203;-71
2021/10/27 07:48:06;;;;;;;9.40;5.13;;;;;;;;;;5032595;28;20542;-72
2021/10/27 07:50:35;;;;;;;9.27;4.70;;;;;;;;;;5031679;28;20233;-72
2021/10/27 07:53:04;;;;;;;5.93;3.80;;;;;;;;;;5030753;28;20302;-72
2021/10/27 07:55:32;;;;;;;11.30;4.60;;;;;;;;;;5032689;28;20214;-72
2021/10/27 07:57:59;;;;;;;8.00;4.33;;;;;;;;;;5021486;28;20246;-71
2021/10/27 08:00:26;;;;;;;14.17;5.23;;;;;;;;;;5029352;28;20219;-72
2021/10/27 08:02:54;;;;;;;9.33;4.30;;;;;;;;;;5032504;28;20577;-72
2021/10/27 08:05:21;;;;;;;8.40;4.17;;;;;;;;;;5029752;28;20552;-72
2021/10/27 08:07:50;;;;;;;8.60;4.33;;;;;;;;;;5029540;28;20284;-71
2021/10/27 08:10:19;;;;;;;9.00;4.93;;;;;;;;;;5030028;28;20219;-72
2021/10/27 08:12:46;;;;;;;8.77;3.70;;;;;;;;;;5030357;28;20285;-71
2021/10/27 08:15:13;;;;;;;9.63;4.33;;;;;;;;;;5029677;28;20233;-71
2021/10/27 08:17:40;;;;;;;9.53;4.80;;;;;;;;;;5031583;28;20573;-73
2021/10/27 08:20:10;;;;;;;9.93;4.67;;;;;;;;;;5030722;28;20234;-71
2021/10/27 08:22:38;;;;;;;11.03;4.43;;;;;;;;;;5032344;28;20219;-72
2021/10/27 08:25:14;;;;;;;6.60;4.07;;;;;;;;;;5031139;28;20231;-71
2021/10/27 08:27:40;;;;;;;6.43;4.33;;;;;;;;;;5031057;28;20292;-71
2021/10/27 08:30:09;;;;;;;11.10;4.57;;;;;;;;;;5029202;28;20229;-71
2021/10/27 08:32:45;;;;;;;12.67;4.03;;;;;;;;;;5030134;28;20238;-71
2021/10/27 08:35:13;;;;;;;8.83;4.93;;;;;;;;;;5031062;28;20222;-72
2021/10/27 08:37:42;;;;;;;7.47;5.00;;;;;;;;;;5031457;28;20214;-72
2021/10/27 08:40:11;;;;;;;9.80;4.30;;;;;;;;;;5030286;28;20330;-72
2021/10/27 08:42:40;;;;;;;8.60;4.27;;;;;;;;;;5029411;28;20306;-71
2021/10/27 08:45:07;;;;;;;8.73;4.97;;;;;;;;;;5031212;28;20219;-71
2021/10/27 08:47:34;;;;;;;8.13;4.27;;;;;;;;;;5032855;28;20206;-72
2021/10/27 08:50:02;;;;;;;12.53;4.63;;;;;;;;;;5029861;28;20301;-72
2021/10/27 08:52:28;;;;;;;9.40;5.03;;;;;;;;;;5031211;28;20218;-72
2021/10/27 08:54:56;;;;;;;10.20;4.93;;;;;;;;;;5030267;28;20223;-71
2021/10/27 08:57:25;;;;;;;8.27;4.87;;;;;;;;;;5028070;28;20210;-72
2021/10/27 08:59:55;;;;;;;10.10;4.77;;;;;;;;;;5030654;28;20666;-73
2021/10/27 09:05:17;;;;;;;10.27;4.50;;;;;;;;;;5028908;28;20246;-72
2021/10/27 09:08:07;;;;;;;11.53;4.43;;;;;;;;;;5031637;28;20297;-71
2021/10/27 09:16:27;;;;;;;12.87;4.90;;;;;;;;;;5030118;28;20559;-71
2021/10/27 09:38:56;;;;;;;11.30;4.80;;;;;;;;;;5031534;28;20968;-71
2021/10/27 09:42:00;;;;;;;8.23;3.93;;;;;;;;;;5034909;28;20216;-71
2021/10/27 09:55:57;;;;;;;5.20;3.03;;;;;;;;;;5032334;28;20263;-72
2021/10/27 10:04:12;;;;;;;8.90;2.90;;;;;;;;;;5034150;28;21327;-71
2021/10/27 10:06:40;;;;;;;8.40;2.87;;;;;;;;;;5034014;28;20697;-71
2021/10/27 10:09:08;;;;;;;6.43;2.80;;;;;;;;;;5031817;28;20262;-71
2021/10/27 10:11:36;;;;;;;6.40;2.80;;;;;;;;;;5033962;28;20217;-71
2021/10/27 10:14:05;;;;;;;3.57;2.53;;;;;;;;;;5035239;28;20518;-71
2021/10/27 10:16:36;;;;;;;7.10;3.43;;;;;;;;;;5031207;28;20218;-71
2021/10/27 10:19:07;;;;;;;6.17;2.40;;;;;;;;;;5033643;28;20234;-71
2021/10/27 10:21:36;;;;;;;7.60;2.53;;;;;;;;;;5033733;28;20237;-73
2021/10/27 10:24:34;;;;;;;7.13;3.03;;;;;;;;;;5031955;28;20231;-71
2021/10/27 10:27:05;;;;;;;8.27;2.60;;;;;;;;;;5033626;28;20207;-71
2021/10/27 10:29:44;;;;;;;7.80;2.80;;;;;;;;;;5034415;28;20575;-71
2021/10/27 10:32:36;;;;;;;6.00;2.97;;;;;;;;;;5030524;28;20332;-71
2021/10/27 10:35:13;;;;;;;7.23;2.90;;;;;;;;;;5032094;28;21058;-71
2021/10/27 10:37:47;;;;;;;5.53;2.93;;;;;;;;;;5034569;28;20213;-71
2021/10/27 10:40:50;;;;;;;8.90;3.10;;;;;;;;;;5031481;28;20629;-71
2021/10/27 10:43:56;;;;;;;8.53;2.83;;;;;;;;;;5030542;28;20227;-71
2021/10/27 10:58:14;;;;;;;6.90;3.40;;;;;;;;;;5031023;28;20225;-71
2021/10/27 11:03:56;;;;;;;10.43;3.50;;;;;;;;;;5031154;28;20217;-72
2021/10/27 11:37:35;;;;;;;6.73;4.90;;;;;;;;;;5032820;28;20272;-71
2021/10/27 11:40:10;;;;;;;8.50;4.27;;;;;;;;;;5032342;28;20650;-71
2021/10/27 11:42:46;;;;;;;6.90;4.73;;;;;;;;;;5031443;28;20230;-71
2021/10/27 11:45:23;;;;;;;23.47;5.33;;;;;;;;;;5033572;28;20207;-72
2021/10/27 11:47:53;;;;;;;10.07;3.83;;;;;;;;;;5031539;28;20221;-71
2021/10/27 11:50:21;;;;;;;9.40;4.43;;;;;;;;;;5030816;28;20226;-71
2021/10/27 11:52:50;;;;;;;8.80;3.73;;;;;;;;;;5032750;28;20230;-71
2021/10/27 11:55:18;;;;;;;6.53;4.03;;;;;;;;;;5030674;28;20843;-71
2021/10/27 11:57:47;;;;;;;9.47;3.80;;;;;;;;;;5031382;28;20223;-71
2021/10/27 12:00:25;;;;;;;8.57;4.23;;;;;;;;;;5032148;28;20230;-71
2021/10/27 12:02:56;;;;;;;7.43;3.20;;;;;;;;;;5030596;28;20799;-69
2021/10/27 12:05:26;;;;;;;4.53;3.30;;;;;;;;;;5029652;28;20240;-70
2021/10/27 12:08:13;;;;;;;8.77;3.30;;;;;;;;;;5031864;28;20203;-69
2021/10/27 12:10:55;;;;;;;8.50;2.70;;;;;;;;;;5031617;28;20290;-70
2021/10/27 12:13:39;;;;;;;6.27;2.90;;;;;;;;;;5030207;28;20297;-69
2021/10/27 12:18:55;;;;;;;9.67;2.77;;;;;;;;;;5030121;28;20879;-69
2021/10/27 12:21:23;;;;;;;4.97;2.60;;;;;;;;;;5029995;28;20233;-69
2021/10/27 12:23:51;;;;;;;3.80;2.53;;;;;;;;;;5031989;28;20239;-70
2021/10/27 12:26:19;;;;;;;7.27;2.23;;;;;;;;;;5031516;28;20283;-70
2021/10/27 12:28:51;;;;;;;4.83;2.70;;;;;;;;;;5029089;28;20272;-69
2021/10/27 12:31:19;;;;;;;4.63;2.33;;;;;;;;;;5030077;28;20213;-69
2021/10/27 12:33:46;;;;;;;2.67;1.97;;;;;;;;;;5031124;28;20276;-69
2021/10/27 12:36:23;;;;;;;3.07;1.93;;;;;;;;;;5030206;28;20298;-69
2021/10/27 12:39:12;;;;;;;7.03;2.20;;;;;;;;;;5031776;28;20241;-70
2021/10/27 12:41:38;;;;;;;5.87;2.20;;;;;;;;;;5032194;28;20213;-70
2021/10/27 12:44:21;;;;;;;4.33;2.07;;;;;;;;;;5029895;28;20222;-70
2021/10/27 12:46:48;;;;;;;6.00;2.10;;;;;;;;;;5031545;28;20312;-70
2021/10/27 12:49:19;;;;;;;7.57;2.40;;;;;;;;;;5031314;28;20305;-70
2021/10/27 12:51:46;;;;;;;8.13;2.33;;;;;;;;;;5030171;28;20226;-70
2021/10/27 12:54:13;;;;;;;4.67;1.87;;;;;;;;;;5030235;28;20687;-69
2021/10/27 12:56:39;;;;;;;3.27;1.70;;;;;;;;;;5030332;28;20214;-70
2021/10/27 12:59:08;;;;;;;7.90;2.60;;;;;;;;;;5030318;28;20235;-69
2021/10/27 13:01:41;;;;;;;7.43;2.10;;;;;;;;;;5031133;28;20213;-70
2021/10/27 13:04:26;;;;;;;5.27;2.07;;;;;;;;;;5033894;28;20224;-70
2021/10/27 13:07:00;;;;;;;5.73;2.57;;;;;;;;;;5034723;28;20211;-70
2021/10/27 13:09:36;;;;;;;14.07;2.57;;;;;;;;;;5033128;28;20632;-69
2021/10/27 13:12:41;;;;;;;9.83;3.03;;;;;;;;;;5036517;28;20662;-70
2021/10/27 13:15:17;;;;;;;6.33;2.83;;;;;;;;;;5034685;28;20207;-70
2021/10/27 13:18:05;;;;;;;9.30;2.80;;;;;;;;;;5035025;28;20309;-70
2021/10/27 13:23:26;;;;;;;10.80;3.37;;;;;;;;;;5034501;28;20316;-69
2021/10/27 13:31:21;;;;;;;7.83;2.97;;;;;;;;;;5033621;28;20302;-70
2021/10/27 13:33:49;;;;;;;5.10;2.77;;;;;;;;;;5035408;28;20725;-69
2021/10/27 13:36:16;;;;;;;6.37;3.30;;;;;;;;;;5033095;28;20212;-69
2021/10/27 13:38:45;;;;;;;3.80;2.43;;;;;;;;;;5034053;28;20317;-70
2021/10/27 13:41:12;;;;;;;5.77;2.90;;;;;;;;;;5034576;28;20235;-70
2021/10/27 13:43:42;;;;;;;8.10;3.13;;;;;;;;;;5032967;28;20226;-70
2021/10/27 13:46:22;;;;;;;7.40;2.93;;;;;;;;;;5034058;28;20219;-69
2021/10/27 14:08:15;;;;;;;10.50;3.27;;;;;;;;;;5035211;28;20302;-70
2021/10/27 14:10:44;;;;;;;5.60;2.70;;;;;;;;;;5033570;28;20665;-70
2021/10/27 14:13:19;;;;;;;6.17;3.53;;;;;;;;;;5035000;28;20214;-70
2021/10/27 14:16:01;;;;;;;7.60;3.20;;;;;;;;;;5031677;28;20214;-70
2021/10/27 14:18:39;;;;;;;6.30;3.10;;;;;;;;;;5032993;28;20249;-70
2021/10/27 14:40:41;;;;;;;7.87;2.90;;;;;;;;;;5030669;28;20286;-70
2021/10/27 15:21:45;;;;;;;6.53;3.97;;;;;;;;;;5032622;28;20289;-70
2021/10/27 15:30:00;;;;;;;9.27;4.73;;;;;;;;;;5034494;28;20471;-70
2021/10/27 15:35:41;;;;;;;8.07;4.67;;;;;;;;;;5028860;28;20707;-70
2021/10/27 15:41:04;;;;;;;9.23;4.80;;;;;;;;;;5034138;28;20960;-71
2021/10/27 15:51:33;;;;;;;8.30;5.40;;;;;;;;;;5031790;28;20356;-71
2021/10/27 15:53:59;;;;;;;11.77;6.40;;;;;;;;;;5030871;28;20226;-71
2021/10/27 15:56:27;;;;;;;6.87;5.40;;;;;;;;;;5028829;28;20260;-71
2021/10/27 15:58:54;;;;;;;9.03;6.13;;;;;;;;;;5033018;28;20206;-71
2021/10/27 16:01:21;;;;;;;11.33;6.10;;;;;;;;;;5030819;28;20280;-71
2021/10/27 16:03:47;;;;;;;11.07;6.83;;;;;;;;;;5030949;28;20288;-73
2021/10/27 16:06:21;;;;;;;10.33;6.53;;;;;;;;;;5032822;28;20701;-73
2021/10/27 16:08:50;;;;;;;8.93;6.90;;;;;;;;;;5033896;28;20252;-73
2021/10/27 16:11:17;;;;;;;9.30;7.10;;;;;;;;;;5032174;28;20691;-73
2021/10/27 16:13:43;;;;;;;10.20;6.93;;;;;;;;;;5030659;28;20207;-73
2021/10/27 16:16:12;;;;;;;10.27;8.17;;;;;;;;;;5031888;28;21156;-73
2021/10/27 16:18:38;;;;;;;9.70;8.27;;;;;;;;;;5030315;28;20247;-73
2021/10/27 16:21:05;;;;;;;11.13;7.90;;;;;;;;;;5031905;28;20274;-73
2021/10/27 16:23:31;;;;;;;13.07;8.47;;;;;;;;;;5031902;28;20689;-73
2021/10/27 16:25:58;;;;;;;12.10;8.00;;;;;;;;;;5029130;28;20789;-73
2021/10/27 16:28:25;;;;;;;11.50;8.73;;;;;;;;;;5029284;28;20269;-73
2021/10/27 16:30:53;;;;;;;12.70;9.43;;;;;;;;;;5032336;28;20216;-73
2021/10/27 16:33:22;;;;;;;11.80;9.40;;;;;;;;;;5029908;28;20302;-73
2021/10/27 16:35:49;;;;;;;13.23;9.97;;;;;;;;;;5031787;28;20213;-73
2021/10/27 16:38:16;;;;;;;12.60;9.60;;;;;;;;;;5028554;28;20646;-73
2021/10/27 16:40:42;;;;;;;12.50;10.10;;;;;;;;;;5030558;28;20239;-71
2021/10/27 16:43:09;;;;;;;13.13;11.30;;;;;;;;;;5031852;28;20277;-71
2021/10/27 16:45:36;;;;;;;17.13;10.87;;;;;;;;;;5030834;28;20207;-71
2021/10/27 16:48:03;;;;;;;15.20;11.10;;;;;;;;;;5032549;28;20764;-71
2021/10/27 16:50:31;;;;;;;12.33;10.90;;;;;;;;;;5031168;28;20678;-70
2021/10/27 16:52:59;;;;;;;13.47;11.37;;;;;;;;;;5030703;28;20707;-71
2021/10/27 16:55:26;;;;;;;17.97;10.90;;;;;;;;;;5029779;28;20217;-71
2021/10/27 16:57:55;;;;;;;14.20;11.23;;;;;;;;;;5033948;28;20211;-71
2021/10/27 17:00:24;;;;;;;14.30;12.00;;;;;;;;;;5030178;28;20237;-71
2021/10/27 17:02:50;;;;;;;16.30;11.70;;;;;;;;;;5030032;28;20309;-71
2021/10/27 17:05:17;;;;;;;13.33;11.93;;;;;;;;;;5031486;28;20650;-71
2021/10/27 17:07:45;;;;;;;16.47;12.70;;;;;;;;;;5032554;28;20261;-71
2021/10/27 17:10:15;;;;;;;13.80;11.93;;;;;;;;;;5030453;28;20262;-71
2021/10/27 17:12:41;;;;;;;14.47;12.70;;;;;;;;;;5031692;28;20635;-71
2021/10/27 17:15:10;;;;;;;17.27;13.87;;;;;;;;;;5033148;28;20211;-71
2021/10/27 17:17:37;;;;;;;14.43;12.90;;;;;;;;;;5030786;28;20218;-71
2021/10/27 17:20:05;;;;;;;16.30;13.60;;;;;;;;;;5030208;28;20308;-71
2021/10/27 17:22:37;;;;;;;16.77;13.90;;;;;;;;;;5030334;28;20210;-71
2021/10/27 17:25:07;;;;;;;17.80;13.63;;;;;;;;;;5033052;28;20736;-71
2021/10/27 17:27:36;;;;;;;18.77;14.73;;;;;;;;;;5031509;28;20223;-71
2021/10/27 17:30:04;;;;;;;19.23;14.77;;;;;;;;;;5030802;28;20579;-73
2021/10/27 17:32:31;;;;;;;20.37;16.30;;;;;;;;;;5029036;28;20217;-74
2021/10/27 17:34:57;;;;;;;21.10;16.17;;;;;;;;;;5032565;28;20232;-74
2021/10/27 17:37:24;;;;;;;22.37;16.70;;;;;;;;;;5029911;28;20341;-74
2021/10/27 17:39:50;;;;;;;17.50;15.57;;;;;;;;;;5030898;28;20228;-74
2021/10/27 17:42:19;;;;;;;21.97;16.20;;;;;;;;;;5031881;28;20230;-73
2021/10/27 17:44:47;;;;;;;21.20;16.13;;;;;;;;;;5031111;28;20218;-73
2021/10/27 17:47:18;;;;;;;22.07;16.03;;;;;;;;;;5029071;28;20218;-74
2021/10/27 17:49:54;;;;;;;20.83;16.70;;;;;;;;;;5033651;28;20249;-74
2021/10/27 17:52:28;;;;;;;27.53;22.40;;;;;;;;;;5035889;28;20205;-74
2021/10/27 17:58:22;;;;;;;20.10;16.87;;;;;;;;;;5035390;28;20216;-74
2021/10/27 18:00:39;;;;;;;22.27;16.53;;;;;;;;;;5034442;28;20227;-71
2021/10/27 18:03:06;;;;;;;20.10;15.27;;;;;;;;;;5035713;28;20561;-71
2021/10/27 18:05:32;;;;;;;19.57;15.53;;;;;;;;;;5034285;28;20302;-71
2021/10/27 18:07:59;;;;;;;23.23;16.97;;;;;;;;;;5034428;28;20222;-71
2021/10/27 18:10:26;;;;;;;23.97;17.30;;;;;;;;;;5035077;28;20225;-71
2021/10/27 18:12:54;;;;;;;20.77;17.03;;;;;;;;;;5033046;28;20553;-71
2021/10/27 18:15:21;;;;;;;27.57;18.37;;;;;;;;;;5034694;28;20275;-71
2021/10/27 18:17:48;;;;;;;20.93;17.47;;;;;;;;;;5033791;28;20217;-71
2021/10/27 18:20:24;;;;;;;21.77;17.43;;;;;;;;;;5034797;28;21170;-71
2021/10/27 18:23:21;;;;;;;26.47;17.27;;;;;;;;;;5034989;28;20210;-72
2021/10/27 18:26:06;;;;;;;21.40;16.27;;;;;;;;;;5034795;28;20649;-71